sensor_id;sensor_type;location;lat;lon;timestamp;temperature;humidity
23156;DHT22;11746;50.876;4.246;2022-12-18T00:01:21;-2.00;99.90
23156;DHT22;11746;50.876;4.246;2022-12-18T00:03:50;-2.00;99.90
23156;DHT22;11746;50.876;4.246;2022-12-18T00:06:16;-1.80;99.90
23156;DHT22;11746;50.876;4.246;2022-12-18T00:08:45;-1.90;99.90
23156;DHT22;11746;50.876;4.246;2022-12-18T00:11:20;-1.80;99.90
23156;DHT22;11746;50.876;4.246;2022-12-18T00:13:49;-1.70;99.90
23156;DHT22;11746;50.876;4.246;2022-12-18T00:16:19;-1.70;99.90
23156;DHT22;11746;50.876;4.246;2022-12-18T00:18:52;-1.80;99.90
23156;DHT22;11746;50.876;4.246;2022-12-18T00:21:19;-1.90;99.90
23156;DHT22;11746;50.876;4.246;2022-12-18T00:23:47;-2.00;99.90
23156;DHT22;11746;50.876;4.246;2022-12-18T00:26:16;-2.00;99.90
23156;DHT22;11746;50.876;4.246;2022-12-18T00:28:46;-2.00;99.90
23156;DHT22;11746;50.876;4.246;2022-12-18T00:31:15;-2.00;99.90
23156;DHT22;11746;50.876;4.246;2022-12-18T00:33:42;-2.10;99.90
23156;DHT22;11746;50.876;4.246;2022-12-18T00:36:26;-2.20;99.90
23156;DHT22;11746;50.876;4.246;2022-12-18T00:38:58;-2.40;99.90
23156;DHT22;11746;50.876;4.246;2022-12-18T00:41:25;-2.20;99.90
23156;DHT22;11746;50.876;4.246;2022-12-18T00:44:13;-2.10;99.90
23156;DHT22;11746;50.876;4.246;2022-12-18T00:46:40;-2.10;99.90
23156;DHT22;11746;50.876;4.246;2022-12-18T00:49:06;-2.10;99.90
23156;DHT22;11746;50.876;4.246;2022-12-18T00:51:32;-2.20;99.90
23156;DHT22;11746;50.876;4.246;2022-12-18T00:54:00;-2.20;99.90
23156;DHT22;11746;50.876;4.246;2022-12-18T00:56:26;-2.30;99.90
23156;DHT22;11746;50.876;4.246;2022-12-18T00:58:51;-2.40;99.90
23156;DHT22;11746;50.876;4.246;2022-12-18T01:01:20;-2.50;99.90
23156;DHT22;11746;50.876;4.246;2022-12-18T01:03:50;-2.60;99.90
23156;DHT22;11746;50.876;4.246;2022-12-18T01:06:16;-2.60;99.90
23156;DHT22;11746;50.876;4.246;2022-12-18T01:08:42;-2.70;99.90
23156;DHT22;11746;50.876;4.246;2022-12-18T01:11:14;-2.60;99.90
23156;DHT22;11746;50.876;4.246;2022-12-18T01:13:40;-2.60;99.90
23156;DHT22;11746;50.876;4.246;2022-12-18T01:16:06;-2.60;99.90
23156;DHT22;11746;50.876;4.246;2022-12-18T01:18:32;-2.70;99.90
23156;DHT22;11746;50.876;4.246;2022-12-18T01:21:00;-2.70;99.90
23156;DHT22;11746;50.876;4.246;2022-12-18T01:23:25;-2.60;99.90
23156;DHT22;11746;50.876;4.246;2022-12-18T01:25:52;-2.60;99.90
23156;DHT22;11746;50.876;4.246;2022-12-18T01:28:17;-2.50;99.90
23156;DHT22;11746;50.876;4.246;2022-12-18T01:30:44;-2.60;99.90
23156;DHT22;11746;50.876;4.246;2022-12-18T01:33:10;-2.60;99.90
23156;DHT22;11746;50.876;4.246;2022-12-18T01:35:41;-2.50;99.90
23156;DHT22;11746;50.876;4.246;2022-12-18T01:38:07;-2.50;99.90
23156;DHT22;11746;50.876;4.246;2022-12-18T01:40:32;-2.50;99.90
23156;DHT22;11746;50.876;4.246;2022-12-18T01:42:58;-2.60;99.90
23156;DHT22;11746;50.876;4.246;2022-12-18T01:45:28;-2.50;99.90
23156;DHT22;11746;50.876;4.246;2022-12-18T01:48:06;-2.60;99.90
23156;DHT22;11746;50.876;4.246;2022-12-18T01:50:38;-2.60;99.90
23156;DHT22;11746;50.876;4.246;2022-12-18T01:53:15;-2.50;99.90
23156;DHT22;11746;50.876;4.246;2022-12-18T01:55:53;-2.40;99.90
23156;DHT22;11746;50.876;4.246;2022-12-18T01:58:27;-2.30;99.90
23156;DHT22;11746;50.876;4.246;2022-12-18T02:00:57;-2.20;99.90
23156;DHT22;11746;50.876;4.246;2022-12-18T02:03:25;-2.20;99.90
23156;DHT22;11746;50.876;4.246;2022-12-18T02:06:16;-2.20;99.90
23156;DHT22;11746;50.876;4.246;2022-12-18T02:08:54;-2.20;99.90
23156;DHT22;11746;50.876;4.246;2022-12-18T02:11:48;-2.20;99.90
23156;DHT22;11746;50.876;4.246;2022-12-18T02:17:03;-2.30;99.90
23156;DHT22;11746;50.876;4.246;2022-12-18T02:24:54;-2.20;99.90
23156;DHT22;11746;50.876;4.246;2022-12-18T02:27:24;-2.20;99.90
23156;DHT22;11746;50.876;4.246;2022-12-18T02:29:55;-2.30;99.90
23156;DHT22;11746;50.876;4.246;2022-12-18T02:32:28;-2.30;99.90
23156;DHT22;11746;50.876;4.246;2022-12-18T02:34:56;-2.40;99.90
23156;DHT22;11746;50.876;4.246;2022-12-18T02:37:26;-2.40;99.90
23156;DHT22;11746;50.876;4.246;2022-12-18T02:39:57;-2.30;99.90
23156;DHT22;11746;50.876;4.246;2022-12-18T02:42:24;-2.40;99.90
23156;DHT22;11746;50.876;4.246;2022-12-18T02:44:55;-2.50;99.90
23156;DHT22;11746;50.876;4.246;2022-12-18T02:47:23;-2.60;99.90
23156;DHT22;11746;50.876;4.246;2022-12-18T02:50:02;-2.70;99.90
23156;DHT22;11746;50.876;4.246;2022-12-18T03:01:07;-2.90;99.90
23156;DHT22;11746;50.876;4.246;2022-12-18T03:04:04;-2.80;99.90
23156;DHT22;11746;50.876;4.246;2022-12-18T03:06:37;-2.80;99.90
23156;DHT22;11746;50.876;4.246;2022-12-18T03:09:12;-2.60;99.90
23156;DHT22;11746;50.876;4.246;2022-12-18T03:11:42;-2.70;99.90
23156;DHT22;11746;50.876;4.246;2022-12-18T03:14:30;-2.60;99.90
23156;DHT22;11746;50.876;4.246;2022-12-18T03:17:00;-2.70;99.90
23156;DHT22;11746;50.876;4.246;2022-12-18T03:19:29;-2.80;99.90
23156;DHT22;11746;50.876;4.246;2022-12-18T03:21:58;-2.90;99.90
23156;DHT22;11746;50.876;4.246;2022-12-18T03:24:29;-2.90;99.90
23156;DHT22;11746;50.876;4.246;2022-12-18T03:27:00;-2.90;99.90
23156;DHT22;11746;50.876;4.246;2022-12-18T03:32:15;-2.90;99.90
23156;DHT22;11746;50.876;4.246;2022-12-18T03:34:49;-2.90;99.90
23156;DHT22;11746;50.876;4.246;2022-12-18T03:37:16;-2.90;99.90
23156;DHT22;11746;50.876;4.246;2022-12-18T03:39:42;-3.00;99.90
23156;DHT22;11746;50.876;4.246;2022-12-18T03:42:26;-2.90;99.90
23156;DHT22;11746;50.876;4.246;2022-12-18T03:50:15;-2.90;99.90
23156;DHT22;11746;50.876;4.246;2022-12-18T03:52:49;-3.00;99.90
23156;DHT22;11746;50.876;4.246;2022-12-18T03:55:19;-3.10;99.90
23156;DHT22;11746;50.876;4.246;2022-12-18T03:57:47;-3.10;99.90
23156;DHT22;11746;50.876;4.246;2022-12-18T04:00:16;-3.10;99.90
23156;DHT22;11746;50.876;4.246;2022-12-18T04:02:52;-3.00;99.90
23156;DHT22;11746;50.876;4.246;2022-12-18T04:05:20;-3.00;99.90
23156;DHT22;11746;50.876;4.246;2022-12-18T04:07:48;-2.90;99.90
23156;DHT22;11746;50.876;4.246;2022-12-18T04:10:16;-3.00;99.90
23156;DHT22;11746;50.876;4.246;2022-12-18T04:12:42;-3.00;99.90
23156;DHT22;11746;50.876;4.246;2022-12-18T04:15:09;-3.00;99.90
23156;DHT22;11746;50.876;4.246;2022-12-18T04:17:38;-3.00;99.90
23156;DHT22;11746;50.876;4.246;2022-12-18T04:20:09;-3.00;99.90
23156;DHT22;11746;50.876;4.246;2022-12-18T04:22:35;-3.00;99.90
23156;DHT22;11746;50.876;4.246;2022-12-18T04:25:01;-3.00;99.90
23156;DHT22;11746;50.876;4.246;2022-12-18T04:27:26;-3.10;99.90
23156;DHT22;11746;50.876;4.246;2022-12-18T04:29:52;-3.00;99.90
23156;DHT22;11746;50.876;4.246;2022-12-18T04:32:18;-2.90;99.90
23156;DHT22;11746;50.876;4.246;2022-12-18T04:34:44;-2.80;99.90
23156;DHT22;11746;50.876;4.246;2022-12-18T04:37:13;-2.80;99.90
23156;DHT22;11746;50.876;4.246;2022-12-18T04:39:39;-2.90;99.90
23156;DHT22;11746;50.876;4.246;2022-12-18T04:42:05;-2.90;99.90
23156;DHT22;11746;50.876;4.246;2022-12-18T04:44:36;-3.00;99.90
23156;DHT22;11746;50.876;4.246;2022-12-18T04:47:02;-2.90;99.90
23156;DHT22;11746;50.876;4.246;2022-12-18T04:49:28;-3.00;99.90
23156;DHT22;11746;50.876;4.246;2022-12-18T04:51:53;-3.10;99.90
23156;DHT22;11746;50.876;4.246;2022-12-18T04:54:19;-3.20;99.90
23156;DHT22;11746;50.876;4.246;2022-12-18T04:56:48;-3.20;99.90
23156;DHT22;11746;50.876;4.246;2022-12-18T04:59:13;-3.10;99.90
23156;DHT22;11746;50.876;4.246;2022-12-18T05:01:39;-3.20;99.90
23156;DHT22;11746;50.876;4.246;2022-12-18T05:04:05;-3.20;99.90
23156;DHT22;11746;50.876;4.246;2022-12-18T05:06:31;-3.20;99.90
23156;DHT22;11746;50.876;4.246;2022-12-18T05:08:57;-3.20;99.90
23156;DHT22;11746;50.876;4.246;2022-12-18T05:11:25;-3.30;99.90
23156;DHT22;11746;50.876;4.246;2022-12-18T05:13:51;-3.20;99.90
23156;DHT22;11746;50.876;4.246;2022-12-18T05:16:16;-3.20;99.90
23156;DHT22;11746;50.876;4.246;2022-12-18T05:18:44;-3.20;99.90
23156;DHT22;11746;50.876;4.246;2022-12-18T05:21:10;-3.20;99.90
23156;DHT22;11746;50.876;4.246;2022-12-18T05:23:36;-3.30;99.90
23156;DHT22;11746;50.876;4.246;2022-12-18T05:26:04;-3.20;99.90
23156;DHT22;11746;50.876;4.246;2022-12-18T05:28:33;-3.10;99.90
23156;DHT22;11746;50.876;4.246;2022-12-18T05:31:01;-3.30;99.90
23156;DHT22;11746;50.876;4.246;2022-12-18T05:33:30;-3.20;99.90
23156;DHT22;11746;50.876;4.246;2022-12-18T05:35:58;-3.20;99.90
23156;DHT22;11746;50.876;4.246;2022-12-18T05:38:25;-3.20;99.90
23156;DHT22;11746;50.876;4.246;2022-12-18T05:40:52;-3.20;99.90
23156;DHT22;11746;50.876;4.246;2022-12-18T05:43:26;-3.20;99.90
23156;DHT22;11746;50.876;4.246;2022-12-18T05:45:55;-3.30;99.90
23156;DHT22;11746;50.876;4.246;2022-12-18T05:48:22;-3.30;99.90
23156;DHT22;11746;50.876;4.246;2022-12-18T05:50:49;-3.40;99.90
23156;DHT22;11746;50.876;4.246;2022-12-18T05:53:19;-3.40;99.90
23156;DHT22;11746;50.876;4.246;2022-12-18T05:55:46;-3.40;99.90
23156;DHT22;11746;50.876;4.246;2022-12-18T05:58:13;-3.40;99.90
23156;DHT22;11746;50.876;4.246;2022-12-18T06:00:42;-3.30;99.90
23156;DHT22;11746;50.876;4.246;2022-12-18T06:03:09;-3.40;99.90
23156;DHT22;11746;50.876;4.246;2022-12-18T06:05:41;-3.50;99.90
23156;DHT22;11746;50.876;4.246;2022-12-18T06:08:07;-3.30;99.90
23156;DHT22;11746;50.876;4.246;2022-12-18T06:10:34;-3.30;99.90
23156;DHT22;11746;50.876;4.246;2022-12-18T06:13:00;-3.40;99.90
23156;DHT22;11746;50.876;4.246;2022-12-18T06:15:26;-3.40;99.90
23156;DHT22;11746;50.876;4.246;2022-12-18T06:17:52;-3.40;99.90
23156;DHT22;11746;50.876;4.246;2022-12-18T06:20:17;-3.40;99.90
23156;DHT22;11746;50.876;4.246;2022-12-18T06:22:44;-3.40;99.90
23156;DHT22;11746;50.876;4.246;2022-12-18T06:25:09;-3.50;99.90
23156;DHT22;11746;50.876;4.246;2022-12-18T06:27:38;-3.50;99.90
23156;DHT22;11746;50.876;4.246;2022-12-18T06:30:13;-3.40;99.90
23156;DHT22;11746;50.876;4.246;2022-12-18T06:32:41;-3.30;99.90
23156;DHT22;11746;50.876;4.246;2022-12-18T06:35:08;-3.30;99.90
23156;DHT22;11746;50.876;4.246;2022-12-18T06:37:33;-3.20;99.90
23156;DHT22;11746;50.876;4.246;2022-12-18T06:39:59;-3.30;99.90
23156;DHT22;11746;50.876;4.246;2022-12-18T06:42:26;-3.30;99.90
23156;DHT22;11746;50.876;4.246;2022-12-18T06:44:54;-3.30;99.90
23156;DHT22;11746;50.876;4.246;2022-12-18T06:47:20;-3.30;99.90
23156;DHT22;11746;50.876;4.246;2022-12-18T06:49:45;-3.20;99.90
23156;DHT22;11746;50.876;4.246;2022-12-18T06:52:14;-3.30;99.90
23156;DHT22;11746;50.876;4.246;2022-12-18T06:54:39;-3.30;99.90
23156;DHT22;11746;50.876;4.246;2022-12-18T06:57:05;-3.40;99.90
23156;DHT22;11746;50.876;4.246;2022-12-18T06:59:31;-3.20;99.90
23156;DHT22;11746;50.876;4.246;2022-12-18T07:01:56;-3.30;99.90
23156;DHT22;11746;50.876;4.246;2022-12-18T07:04:30;-3.20;99.90
23156;DHT22;11746;50.876;4.246;2022-12-18T07:06:56;-3.30;99.90
23156;DHT22;11746;50.876;4.246;2022-12-18T07:09:22;-3.20;99.90
23156;DHT22;11746;50.876;4.246;2022-12-18T07:11:48;-3.00;99.90
23156;DHT22;11746;50.876;4.246;2022-12-18T07:14:14;-3.20;99.90
23156;DHT22;11746;50.876;4.246;2022-12-18T07:16:39;-3.20;99.90
23156;DHT22;11746;50.876;4.246;2022-12-18T07:19:06;-3.10;99.90
23156;DHT22;11746;50.876;4.246;2022-12-18T07:21:31;-3.00;99.90
23156;DHT22;11746;50.876;4.246;2022-12-18T07:23:57;-3.00;99.90
23156;DHT22;11746;50.876;4.246;2022-12-18T07:26:23;-3.10;99.90
23156;DHT22;11746;50.876;4.246;2022-12-18T07:28:49;-3.00;99.90
23156;DHT22;11746;50.876;4.246;2022-12-18T07:31:19;-3.00;99.90
23156;DHT22;11746;50.876;4.246;2022-12-18T07:33:46;-3.00;99.90
23156;DHT22;11746;50.876;4.246;2022-12-18T07:36:12;-2.70;99.90
23156;DHT22;11746;50.876;4.246;2022-12-18T07:38:38;-2.70;99.90
23156;DHT22;11746;50.876;4.246;2022-12-18T07:41:10;-2.50;99.90
23156;DHT22;11746;50.876;4.246;2022-12-18T07:43:36;-2.10;99.90
23156;DHT22;11746;50.876;4.246;2022-12-18T07:46:05;-2.10;99.90
23156;DHT22;11746;50.876;4.246;2022-12-18T07:48:34;-2.30;99.90
23156;DHT22;11746;50.876;4.246;2022-12-18T07:51:00;-2.40;99.90
23156;DHT22;11746;50.876;4.246;2022-12-18T07:53:27;-2.50;99.90
23156;DHT22;11746;50.876;4.246;2022-12-18T07:55:57;-2.50;99.90
23156;DHT22;11746;50.876;4.246;2022-12-18T07:58:26;-2.60;99.90
23156;DHT22;11746;50.876;4.246;2022-12-18T08:00:52;-2.60;99.90
23156;DHT22;11746;50.876;4.246;2022-12-18T08:03:18;-2.60;99.90
23156;DHT22;11746;50.876;4.246;2022-12-18T08:05:44;-2.70;99.90
23156;DHT22;11746;50.876;4.246;2022-12-18T08:08:10;-2.60;99.90
23156;DHT22;11746;50.876;4.246;2022-12-18T08:10:38;-2.60;99.90
23156;DHT22;11746;50.876;4.246;2022-12-18T08:13:04;-2.50;99.90
23156;DHT22;11746;50.876;4.246;2022-12-18T08:15:30;-2.30;99.90
23156;DHT22;11746;50.876;4.246;2022-12-18T08:17:57;-2.20;99.90
23156;DHT22;11746;50.876;4.246;2022-12-18T08:20:25;-2.00;99.90
23156;DHT22;11746;50.876;4.246;2022-12-18T08:22:53;-2.00;99.90
23156;DHT22;11746;50.876;4.246;2022-12-18T08:25:22;-2.00;99.90
23156;DHT22;11746;50.876;4.246;2022-12-18T08:27:48;-2.10;99.90
23156;DHT22;11746;50.876;4.246;2022-12-18T08:30:14;-2.00;99.90
23156;DHT22;11746;50.876;4.246;2022-12-18T08:32:41;-1.90;99.90
23156;DHT22;11746;50.876;4.246;2022-12-18T08:35:10;-1.90;99.90
23156;DHT22;11746;50.876;4.246;2022-12-18T08:37:37;-1.70;99.90
23156;DHT22;11746;50.876;4.246;2022-12-18T08:40:06;-1.60;99.90
23156;DHT22;11746;50.876;4.246;2022-12-18T08:42:32;-1.60;99.90
23156;DHT22;11746;50.876;4.246;2022-12-18T08:45:16;-1.50;99.90
23156;DHT22;11746;50.876;4.246;2022-12-18T08:47:42;-1.50;99.90
23156;DHT22;11746;50.876;4.246;2022-12-18T08:50:09;-1.50;99.90
23156;DHT22;11746;50.876;4.246;2022-12-18T08:52:36;-1.30;99.90
23156;DHT22;11746;50.876;4.246;2022-12-18T08:55:04;-1.10;99.90
23156;DHT22;11746;50.876;4.246;2022-12-18T08:57:30;-1.20;99.90
23156;DHT22;11746;50.876;4.246;2022-12-18T08:59:58;-1.00;99.90
23156;DHT22;11746;50.876;4.246;2022-12-18T09:02:24;-0.80;99.90
23156;DHT22;11746;50.876;4.246;2022-12-18T09:04:50;-0.80;99.90
23156;DHT22;11746;50.876;4.246;2022-12-18T09:07:16;-0.80;99.90
23156;DHT22;11746;50.876;4.246;2022-12-18T09:09:42;-0.50;99.90
23156;DHT22;11746;50.876;4.246;2022-12-18T09:12:07;-0.50;99.90
23156;DHT22;11746;50.876;4.246;2022-12-18T09:14:33;-0.50;99.90
23156;DHT22;11746;50.876;4.246;2022-12-18T09:17:00;-0.30;99.90
23156;DHT22;11746;50.876;4.246;2022-12-18T09:19:26;-0.30;99.90
23156;DHT22;11746;50.876;4.246;2022-12-18T09:21:51;-0.20;99.90
23156;DHT22;11746;50.876;4.246;2022-12-18T09:24:17;-0.10;99.90
23156;DHT22;11746;50.876;4.246;2022-12-18T09:26:44;-0.20;99.90
23156;DHT22;11746;50.876;4.246;2022-12-18T09:29:09;-0.40;99.90
23156;DHT22;11746;50.876;4.246;2022-12-18T09:31:36;-0.60;99.90
23156;DHT22;11746;50.876;4.246;2022-12-18T09:34:02;-0.60;99.90
23156;DHT22;11746;50.876;4.246;2022-12-18T09:36:30;-0.50;99.90
23156;DHT22;11746;50.876;4.246;2022-12-18T09:38:58;-0.50;99.90
23156;DHT22;11746;50.876;4.246;2022-12-18T09:44:15;-0.40;99.90
23156;DHT22;11746;50.876;4.246;2022-12-18T09:47:34;-0.40;99.90
23156;DHT22;11746;50.876;4.246;2022-12-18T09:50:04;-0.30;99.90
23156;DHT22;11746;50.876;4.246;2022-12-18T09:52:33;-0.30;99.90
23156;DHT22;11746;50.876;4.246;2022-12-18T09:57:47;-0.30;99.90
23156;DHT22;11746;50.876;4.246;2022-12-18T10:00:20;-0.30;99.90
23156;DHT22;11746;50.876;4.246;2022-12-18T10:02:50;-0.30;99.90
23156;DHT22;11746;50.876;4.246;2022-12-18T10:08:23;0.00;99.90
23156;DHT22;11746;50.876;4.246;2022-12-18T10:10:57;0.00;99.90
23156;DHT22;11746;50.876;4.246;2022-12-18T10:14:05;0.00;99.90
23156;DHT22;11746;50.876;4.246;2022-12-18T10:16:58;-0.10;99.90
23156;DHT22;11746;50.876;4.246;2022-12-18T10:19:35;0.00;99.90
23156;DHT22;11746;50.876;4.246;2022-12-18T10:25:00;0.00;99.90
23156;DHT22;11746;50.876;4.246;2022-12-18T10:27:27;0.10;99.90
23156;DHT22;11746;50.876;4.246;2022-12-18T10:29:54;0.20;99.90
23156;DHT22;11746;50.876;4.246;2022-12-18T10:32:23;0.30;99.90
23156;DHT22;11746;50.876;4.246;2022-12-18T10:34:54;0.40;99.90
23156;DHT22;11746;50.876;4.246;2022-12-18T10:37:25;0.40;99.90
23156;DHT22;11746;50.876;4.246;2022-12-18T10:42:32;0.20;99.90
23156;DHT22;11746;50.876;4.246;2022-12-18T10:45:14;0.30;99.90
23156;DHT22;11746;50.876;4.246;2022-12-18T10:47:49;0.30;99.90
23156;DHT22;11746;50.876;4.246;2022-12-18T10:52:58;0.50;99.90
23156;DHT22;11746;50.876;4.246;2022-12-18T10:55:30;0.60;99.90
23156;DHT22;11746;50.876;4.246;2022-12-18T10:58:22;0.80;99.90
23156;DHT22;11746;50.876;4.246;2022-12-18T11:06:27;0.90;99.90
23156;DHT22;11746;50.876;4.246;2022-12-18T11:11:59;1.10;99.90
23156;DHT22;11746;50.876;4.246;2022-12-18T11:14:51;1.10;99.90
23156;DHT22;11746;50.876;4.246;2022-12-18T11:19:56;1.10;99.90
23156;DHT22;11746;50.876;4.246;2022-12-18T11:22:31;1.20;99.90
23156;DHT22;11746;50.876;4.246;2022-12-18T11:25:00;1.20;99.90
23156;DHT22;11746;50.876;4.246;2022-12-18T11:27:28;1.20;99.90
23156;DHT22;11746;50.876;4.246;2022-12-18T11:30:13;1.30;99.90
23156;DHT22;11746;50.876;4.246;2022-12-18T11:33:06;1.50;99.90
23156;DHT22;11746;50.876;4.246;2022-12-18T11:35:51;1.50;99.90
23156;DHT22;11746;50.876;4.246;2022-12-18T11:38:24;1.50;99.90
23156;DHT22;11746;50.876;4.246;2022-12-18T11:40:59;1.50;99.90
23156;DHT22;11746;50.876;4.246;2022-12-18T11:43:38;1.60;99.90
23156;DHT22;11746;50.876;4.246;2022-12-18T11:46:10;1.60;99.90
23156;DHT22;11746;50.876;4.246;2022-12-18T11:49:24;1.60;99.90
23156;DHT22;11746;50.876;4.246;2022-12-18T11:52:20;1.50;99.90
23156;DHT22;11746;50.876;4.246;2022-12-18T11:54:19;1.50;99.90
23156;DHT22;11746;50.876;4.246;2022-12-18T11:57:02;1.60;99.90
23156;DHT22;11746;50.876;4.246;2022-12-18T12:00:09;1.80;99.90
23156;DHT22;11746;50.876;4.246;2022-12-18T12:08:23;2.10;99.90
23156;DHT22;11746;50.876;4.246;2022-12-18T12:10:57;2.10;99.90
23156;DHT22;11746;50.876;4.246;2022-12-18T12:22:04;1.90;99.90
23156;DHT22;11746;50.876;4.246;2022-12-18T12:24:39;2.00;99.90
23156;DHT22;11746;50.876;4.246;2022-12-18T12:32:29;1.80;99.90
23156;DHT22;11746;50.876;4.246;2022-12-18T12:40:31;1.80;99.90
23156;DHT22;11746;50.876;4.246;2022-12-18T12:43:07;1.90;99.90
23156;DHT22;11746;50.876;4.246;2022-12-18T12:45:47;1.90;99.90
23156;DHT22;11746;50.876;4.246;2022-12-18T12:48:23;2.00;99.90
23156;DHT22;11746;50.876;4.246;2022-12-18T12:50:52;2.10;99.90
23156;DHT22;11746;50.876;4.246;2022-12-18T12:53:27;2.00;99.90
23156;DHT22;11746;50.876;4.246;2022-12-18T12:55:57;1.80;99.90
23156;DHT22;11746;50.876;4.246;2022-12-18T12:58:36;1.80;99.90
23156;DHT22;11746;50.876;4.246;2022-12-18T13:01:18;1.90;99.90
23156;DHT22;11746;50.876;4.246;2022-12-18T13:04:15;1.80;99.90
23156;DHT22;11746;50.876;4.246;2022-12-18T13:07:05;1.90;99.90
23156;DHT22;11746;50.876;4.246;2022-12-18T13:09:33;2.00;99.90
23156;DHT22;11746;50.876;4.246;2022-12-18T13:12:04;2.00;99.90
23156;DHT22;11746;50.876;4.246;2022-12-18T13:14:49;2.00;99.90
23156;DHT22;11746;50.876;4.246;2022-12-18T13:19:51;2.10;99.90
23156;DHT22;11746;50.876;4.246;2022-12-18T13:22:44;2.00;99.90
23156;DHT22;11746;50.876;4.246;2022-12-18T13:25:31;2.00;99.90
23156;DHT22;11746;50.876;4.246;2022-12-18T13:28:03;2.10;99.90
23156;DHT22;11746;50.876;4.246;2022-12-18T13:38:40;2.00;99.90
23156;DHT22;11746;50.876;4.246;2022-12-18T13:41:23;1.90;99.90
23156;DHT22;11746;50.876;4.246;2022-12-18T13:43:51;1.80;99.90
23156;DHT22;11746;50.876;4.246;2022-12-18T13:51:17;1.70;99.90
23156;DHT22;11746;50.876;4.246;2022-12-18T13:56:17;1.90;99.90
23156;DHT22;11746;50.876;4.246;2022-12-18T13:58:43;1.70;99.90
23156;DHT22;11746;50.876;4.246;2022-12-18T14:01:22;1.80;99.90
23156;DHT22;11746;50.876;4.246;2022-12-18T14:03:48;1.60;99.90
23156;DHT22;11746;50.876;4.246;2022-12-18T14:06:14;1.70;99.90
23156;DHT22;11746;50.876;4.246;2022-12-18T14:08:42;1.60;99.90
23156;DHT22;11746;50.876;4.246;2022-12-18T14:11:20;1.50;99.90
23156;DHT22;11746;50.876;4.246;2022-12-18T14:13:50;1.50;99.90
23156;DHT22;11746;50.876;4.246;2022-12-18T14:16:20;1.50;99.90
23156;DHT22;11746;50.876;4.246;2022-12-18T14:18:56;1.40;99.90
23156;DHT22;11746;50.876;4.246;2022-12-18T14:21:26;1.40;99.90
23156;DHT22;11746;50.876;4.246;2022-12-18T14:24:11;1.50;99.90
23156;DHT22;11746;50.876;4.246;2022-12-18T14:26:37;1.60;99.90
23156;DHT22;11746;50.876;4.246;2022-12-18T14:29:30;1.50;99.90
23156;DHT22;11746;50.876;4.246;2022-12-18T14:32:27;1.50;99.90
23156;DHT22;11746;50.876;4.246;2022-12-18T14:34:53;1.50;99.90
23156;DHT22;11746;50.876;4.246;2022-12-18T14:37:22;1.60;99.90
23156;DHT22;11746;50.876;4.246;2022-12-18T14:39:59;1.60;99.90
23156;DHT22;11746;50.876;4.246;2022-12-18T14:42:30;1.80;99.90
23156;DHT22;11746;50.876;4.246;2022-12-18T14:45:35;1.80;99.90
23156;DHT22;11746;50.876;4.246;2022-12-18T14:48:06;1.70;99.90
23156;DHT22;11746;50.876;4.246;2022-12-18T14:50:32;1.80;99.90
23156;DHT22;11746;50.876;4.246;2022-12-18T14:52:58;1.80;99.90
23156;DHT22;11746;50.876;4.246;2022-12-18T14:55:28;1.70;99.90
23156;DHT22;11746;50.876;4.246;2022-12-18T14:57:57;1.70;99.90
23156;DHT22;11746;50.876;4.246;2022-12-18T15:00:25;1.70;99.90
23156;DHT22;11746;50.876;4.246;2022-12-18T15:02:57;1.80;99.90
23156;DHT22;11746;50.876;4.246;2022-12-18T15:05:31;1.70;99.90
23156;DHT22;11746;50.876;4.246;2022-12-18T15:07:59;1.70;99.90
23156;DHT22;11746;50.876;4.246;2022-12-18T15:10:30;1.70;99.90
23156;DHT22;11746;50.876;4.246;2022-12-18T15:15:46;1.80;99.90
23156;DHT22;11746;50.876;4.246;2022-12-18T15:18:15;1.90;99.90
23156;DHT22;11746;50.876;4.246;2022-12-18T15:20:49;1.90;99.90
23156;DHT22;11746;50.876;4.246;2022-12-18T15:25:45;1.60;99.90
23156;DHT22;11746;50.876;4.246;2022-12-18T15:28:19;1.60;99.90
23156;DHT22;11746;50.876;4.246;2022-12-18T15:33:40;1.60;99.90
23156;DHT22;11746;50.876;4.246;2022-12-18T15:36:12;1.60;99.90
23156;DHT22;11746;50.876;4.246;2022-12-18T15:38:37;1.70;99.90
23156;DHT22;11746;50.876;4.246;2022-12-18T15:41:03;1.80;99.90
23156;DHT22;11746;50.876;4.246;2022-12-18T15:43:32;1.90;99.90
23156;DHT22;11746;50.876;4.246;2022-12-18T15:46:12;2.00;99.90
23156;DHT22;11746;50.876;4.246;2022-12-18T15:48:40;1.90;99.90
23156;DHT22;11746;50.876;4.246;2022-12-18T15:51:26;1.90;99.90
23156;DHT22;11746;50.876;4.246;2022-12-18T15:53:56;1.90;99.90
23156;DHT22;11746;50.876;4.246;2022-12-18T15:56:22;1.80;99.90
23156;DHT22;11746;50.876;4.246;2022-12-18T15:59:14;1.80;99.90
23156;DHT22;11746;50.876;4.246;2022-12-18T16:01:44;1.80;99.90
23156;DHT22;11746;50.876;4.246;2022-12-18T16:04:16;1.70;99.90
23156;DHT22;11746;50.876;4.246;2022-12-18T16:06:41;1.80;99.90
23156;DHT22;11746;50.876;4.246;2022-12-18T16:09:09;1.90;99.90
23156;DHT22;11746;50.876;4.246;2022-12-18T16:11:39;1.90;99.90
23156;DHT22;11746;50.876;4.246;2022-12-18T16:14:20;1.90;99.90
23156;DHT22;11746;50.876;4.246;2022-12-18T16:16:53;2.00;99.90
23156;DHT22;11746;50.876;4.246;2022-12-18T16:19:20;2.10;99.90
23156;DHT22;11746;50.876;4.246;2022-12-18T16:21:47;2.00;99.90
23156;DHT22;11746;50.876;4.246;2022-12-18T16:24:18;2.00;99.90
23156;DHT22;11746;50.876;4.246;2022-12-18T16:26:47;2.10;99.90
23156;DHT22;11746;50.876;4.246;2022-12-18T16:29:13;2.10;99.90
23156;DHT22;11746;50.876;4.246;2022-12-18T16:31:39;2.10;99.90
23156;DHT22;11746;50.876;4.246;2022-12-18T16:36:56;1.90;99.90
23156;DHT22;11746;50.876;4.246;2022-12-18T16:39:22;1.90;99.90
23156;DHT22;11746;50.876;4.246;2022-12-18T16:41:49;2.00;99.90
23156;DHT22;11746;50.876;4.246;2022-12-18T16:44:15;2.10;99.90
23156;DHT22;11746;50.876;4.246;2022-12-18T16:46:45;2.10;99.90
23156;DHT22;11746;50.876;4.246;2022-12-18T16:49:14;2.10;99.90
23156;DHT22;11746;50.876;4.246;2022-12-18T16:51:43;2.20;99.90
23156;DHT22;11746;50.876;4.246;2022-12-18T16:54:09;2.20;99.90
23156;DHT22;11746;50.876;4.246;2022-12-18T16:56:37;2.20;99.90
23156;DHT22;11746;50.876;4.246;2022-12-18T16:59:04;2.30;99.90
23156;DHT22;11746;50.876;4.246;2022-12-18T17:01:30;2.40;99.90
23156;DHT22;11746;50.876;4.246;2022-12-18T17:04:02;2.40;99.90
23156;DHT22;11746;50.876;4.246;2022-12-18T17:06:30;2.40;99.90
23156;DHT22;11746;50.876;4.246;2022-12-18T17:09:01;2.50;99.90
23156;DHT22;11746;50.876;4.246;2022-12-18T17:11:29;2.50;99.90
23156;DHT22;11746;50.876;4.246;2022-12-18T17:13:56;2.50;99.90
23156;DHT22;11746;50.876;4.246;2022-12-18T17:16:24;2.40;99.90
23156;DHT22;11746;50.876;4.246;2022-12-18T17:18:52;2.30;99.90
23156;DHT22;11746;50.876;4.246;2022-12-18T17:21:18;2.30;99.90
23156;DHT22;11746;50.876;4.246;2022-12-18T17:23:44;2.50;99.90
23156;DHT22;11746;50.876;4.246;2022-12-18T17:26:11;2.30;99.90
23156;DHT22;11746;50.876;4.246;2022-12-18T17:28:40;2.30;99.90
23156;DHT22;11746;50.876;4.246;2022-12-18T17:31:14;2.20;99.90
23156;DHT22;11746;50.876;4.246;2022-12-18T17:33:41;2.20;99.90
23156;DHT22;11746;50.876;4.246;2022-12-18T17:36:11;2.30;99.90
23156;DHT22;11746;50.876;4.246;2022-12-18T17:38:42;2.40;99.90
23156;DHT22;11746;50.876;4.246;2022-12-18T17:41:10;2.50;99.90
23156;DHT22;11746;50.876;4.246;2022-12-18T17:43:36;2.40;99.90
23156;DHT22;11746;50.876;4.246;2022-12-18T17:46:11;2.40;99.90